Whiteman Air Force Base
KSZL : rendu visible

Aérodrome :











RETROUVEZ-NOUS SUR...

 
LOGIN :

S'inscrire | Disclaimer

   EN    FR    IT 

 









Légende :    VFR   VFR Marginal   IFR   IFR Intensif   IFR Très Intensif
Visi : 
Plafond : 
>= 8 km
>= 3000ft
5 à 8 km
1000 à 3000 ft
1500m à 5 km
500 à 1000 ft
800 à 1500m
200 à 500 ft
< 800m
< 200 ft
Symboles :   Orages  Brouillard  Fortes neiges  Fortes précipitations  Vent > 20 kt






- Altitude de l'aérodrome : 870 ft


KSZL - Whiteman Air Force Base

DERNIER METAR :
  • 230156Z 17009KT 3SM -DZ BR OVC007 01/01 A2994 RMK AO2A SLP149 P0000 T00080008 $

METARs EXPIRÉS :
  • 230056Z 17010KT 3SM -RASN OVC007 01/01 A2994 RMK AO2A SLPNO P0000 T00060006 $
  • 222356Z 17009KT 3SM -RASN OVC008 01/01 A2993 RMK A02A SLPNO P0000 60003 T00070007 10007 20005 $

TAF TAF KSZL
Valide du 22 à 19h jusqu'au 24 à 01h UTC


221900Z 2219/2401 18012KT 9000 -RA BKN020 OVC030 650204 620609 621505 QNH2992INS
BECMG 2222/2223 18009KT 8000 -RA OVC009 620091 650195 620699 QNH2990INS
BECMG 2304/2305 19009KT 6000 -RA OVC005 650154 620559 621454 QNH2984INS
BECMG 2323/2324 VRB06KT 0800 SN OVC002 620079 620979 QNH2985INS TX02/2319Z TN01/2219Z



MET'MAP, la Météo Aéronautique d'un coup d'oeil ! - Copyright ORBIFLY Décembre 2007 - Disclaimer

ORBIFLY MET'MAP TEAM :

Programmation & Développement : Alexandra Zaïnal
Sur une idée originale de : Baudouin d'Aumeries
Assistance à la programmation : Marc-Olivier Méhu
Soutien technique & logistique : Manuel Goepfert

Contact : metmap@orbifly.com




SOURCES & CREDITS :

   NOAA       Earth
Advisory